sensor_id;sensor_type;location;lat;lon;timestamp;pressure;altitude;pressure_sealevel;temperature;humidity
7105;BME280;3594;42.152;24.714;2023-08-24T00:00:05;62048.84;;;23.95;nan
7105;BME280;3594;42.152;24.714;2023-08-24T00:02:30;62125.34;;;23.70;nan
7105;BME280;3594;42.152;24.714;2023-08-24T00:04:56;62126.59;;;23.50;nan
7105;BME280;3594;42.152;24.714;2023-08-24T00:07:21;62064.47;;;23.83;nan
7105;BME280;3594;42.152;24.714;2023-08-24T00:09:47;62164.34;;;23.63;nan
7105;BME280;3594;42.152;24.714;2023-08-24T00:12:12;62042.63;;;23.73;nan
7105;BME280;3594;42.152;24.714;2023-08-24T00:14:38;62103.50;;;23.60;nan
7105;BME280;3594;42.152;24.714;2023-08-24T00:17:03;62055.63;;;23.89;nan
7105;BME280;3594;42.152;24.714;2023-08-24T00:19:28;61984.06;;;23.60;nan
7105;BME280;3594;42.152;24.714;2023-08-24T00:21:54;62029.59;;;23.73;nan
7105;BME280;3594;42.152;24.714;2023-08-24T00:24:19;62058.38;;;23.68;nan
7105;BME280;3594;42.152;24.714;2023-08-24T00:26:44;62055.78;;;23.68;nan
7105;BME280;3594;42.152;24.714;2023-08-24T00:29:10;62008.50;;;23.43;nan
7105;BME280;3594;42.152;24.714;2023-08-24T00:31:36;62037.72;;;23.59;nan
7105;BME280;3594;42.152;24.714;2023-08-24T00:34:01;62046.94;;;23.63;nan
7105;BME280;3594;42.152;24.714;2023-08-24T00:36:27;62133.75;;;23.54;nan
7105;BME280;3594;42.152;24.714;2023-08-24T00:38:52;62288.34;;;23.66;nan
7105;BME280;3594;42.152;24.714;2023-08-24T00:41:18;62073.44;;;23.84;nan
7105;BME280;3594;42.152;24.714;2023-08-24T00:43:44;62122.53;;;23.79;nan
7105;BME280;3594;42.152;24.714;2023-08-24T00:46:09;62043.66;;;23.67;nan
7105;BME280;3594;42.152;24.714;2023-08-24T00:48:35;62047.19;;;23.49;nan
7105;BME280;3594;42.152;24.714;2023-08-24T00:53:26;62178.13;;;23.54;nan
7105;BME280;3594;42.152;24.714;2023-08-24T00:55:53;62025.34;;;23.55;nan
7105;BME280;3594;42.152;24.714;2023-08-24T00:58:19;62097.44;;;23.29;nan
7105;BME280;3594;42.152;24.714;2023-08-24T01:00:45;61988.22;;;23.15;nan
7105;BME280;3594;42.152;24.714;2023-08-24T01:03:10;62086.25;;;22.94;nan
7105;BME280;3594;42.152;24.714;2023-08-24T01:05:36;62020.88;;;23.19;nan
7105;BME280;3594;42.152;24.714;2023-08-24T01:08:01;61975.75;;;23.16;nan
7105;BME280;3594;42.152;24.714;2023-08-24T01:10:36;61971.84;;;23.08;nan
7105;BME280;3594;42.152;24.714;2023-08-24T01:13:21;61942.47;;;22.88;nan
7105;BME280;3594;42.152;24.714;2023-08-24T01:15:57;61937.75;;;22.77;nan
7105;BME280;3594;42.152;24.714;2023-08-24T01:18:26;61911.03;;;22.81;nan
7105;BME280;3594;42.152;24.714;2023-08-24T01:20:53;61904.50;;;22.62;nan
7105;BME280;3594;42.152;24.714;2023-08-24T01:26:14;61950.91;;;22.84;nan
7105;BME280;3594;42.152;24.714;2023-08-24T01:28:45;61849.50;;;22.75;nan
7105;BME280;3594;42.152;24.714;2023-08-24T01:31:13;62036.50;;;22.91;nan
7105;BME280;3594;42.152;24.714;2023-08-24T01:33:40;61921.00;;;22.76;nan
7105;BME280;3594;42.152;24.714;2023-08-24T01:36:06;61943.91;;;22.87;nan
7105;BME280;3594;42.152;24.714;2023-08-24T01:38:31;62181.22;;;22.78;nan
7105;BME280;3594;42.152;24.714;2023-08-24T01:43:40;61940.38;;;22.77;nan
7105;BME280;3594;42.152;24.714;2023-08-24T01:46:07;62212.56;;;22.74;nan
7105;BME280;3594;42.152;24.714;2023-08-24T01:48:33;61860.19;;;22.50;nan
7105;BME280;3594;42.152;24.714;2023-08-24T01:51:00;62125.31;;;22.45;nan
7105;BME280;3594;42.152;24.714;2023-08-24T01:53:29;62032.22;;;22.57;nan
7105;BME280;3594;42.152;24.714;2023-08-24T01:55:55;61879.13;;;22.30;nan
7105;BME280;3594;42.152;24.714;2023-08-24T01:58:20;62002.38;;;22.28;nan
7105;BME280;3594;42.152;24.714;2023-08-24T02:00:46;61913.97;;;22.24;nan
7105;BME280;3594;42.152;24.714;2023-08-24T02:03:11;62132.16;;;22.35;nan
7105;BME280;3594;42.152;24.714;2023-08-24T02:05:36;61983.19;;;22.18;nan
7105;BME280;3594;42.152;24.714;2023-08-24T02:08:02;61797.81;;;22.18;nan
7105;BME280;3594;42.152;24.714;2023-08-24T02:10:27;61873.81;;;22.34;nan
7105;BME280;3594;42.152;24.714;2023-08-24T02:12:53;61887.50;;;22.30;nan
7105;BME280;3594;42.152;24.714;2023-08-24T02:15:19;61939.16;;;22.65;nan
7105;BME280;3594;42.152;24.714;2023-08-24T02:17:44;61973.94;;;22.03;nan
7105;BME280;3594;42.152;24.714;2023-08-24T02:20:10;61963.69;;;22.70;nan
7105;BME280;3594;42.152;24.714;2023-08-24T02:22:39;62005.03;;;22.56;nan
7105;BME280;3594;42.152;24.714;2023-08-24T02:25:05;61889.56;;;22.69;nan
7105;BME280;3594;42.152;24.714;2023-08-24T02:27:31;61880.22;;;22.47;nan
7105;BME280;3594;42.152;24.714;2023-08-24T02:29:57;62041.97;;;22.61;nan
7105;BME280;3594;42.152;24.714;2023-08-24T02:32:22;62033.84;;;22.63;nan
7105;BME280;3594;42.152;24.714;2023-08-24T02:34:48;62044.09;;;22.56;nan
7105;BME280;3594;42.152;24.714;2023-08-24T02:37:13;61897.16;;;22.67;nan
7105;BME280;3594;42.152;24.714;2023-08-24T02:39:39;61893.56;;;22.45;nan
7105;BME280;3594;42.152;24.714;2023-08-24T02:42:04;61920.75;;;22.46;nan
7105;BME280;3594;42.152;24.714;2023-08-24T02:44:30;61850.34;;;22.23;nan
7105;BME280;3594;42.152;24.714;2023-08-24T02:46:56;61380.66;;;22.33;nan
7105;BME280;3594;42.152;24.714;2023-08-24T02:49:22;61878.75;;;22.20;nan
7105;BME280;3594;42.152;24.714;2023-08-24T02:51:47;61942.13;;;22.19;nan
7105;BME280;3594;42.152;24.714;2023-08-24T02:54:13;61916.13;;;22.02;nan
7105;BME280;3594;42.152;24.714;2023-08-24T02:56:38;61866.38;;;22.16;nan
7105;BME280;3594;42.152;24.714;2023-08-24T02:59:03;61819.50;;;22.05;nan
7105;BME280;3594;42.152;24.714;2023-08-24T03:01:29;61810.97;;;21.97;nan
7105;BME280;3594;42.152;24.714;2023-08-24T03:03:55;61838.91;;;22.17;nan
7105;BME280;3594;42.152;24.714;2023-08-24T03:06:20;61862.19;;;22.10;nan
7105;BME280;3594;42.152;24.714;2023-08-24T03:08:45;61848.41;;;22.19;nan
7105;BME280;3594;42.152;24.714;2023-08-24T03:11:11;61928.59;;;22.30;nan
7105;BME280;3594;42.152;24.714;2023-08-24T03:13:37;61968.66;;;22.08;nan
7105;BME280;3594;42.152;24.714;2023-08-24T03:16:04;62117.97;;;22.18;nan
7105;BME280;3594;42.152;24.714;2023-08-24T03:18:30;61972.28;;;22.29;nan
7105;BME280;3594;42.152;24.714;2023-08-24T03:20:55;61682.88;;;21.85;nan
7105;BME280;3594;42.152;24.714;2023-08-24T03:23:20;61866.81;;;22.10;nan
7105;BME280;3594;42.152;24.714;2023-08-24T03:25:47;61929.47;;;22.00;nan
7105;BME280;3594;42.152;24.714;2023-08-24T03:28:12;61815.69;;;21.92;nan
7105;BME280;3594;42.152;24.714;2023-08-24T03:30:46;61881.00;;;21.94;nan
7105;BME280;3594;42.152;24.714;2023-08-24T03:33:12;63304.34;;;16.17;nan
7105;BME280;3594;42.152;24.714;2023-08-24T03:35:37;61834.78;;;22.07;nan
7105;BME280;3594;42.152;24.714;2023-08-24T03:38:02;61736.66;;;21.58;nan
7105;BME280;3594;42.152;24.714;2023-08-24T03:40:29;62012.41;;;22.19;nan
7105;BME280;3594;42.152;24.714;2023-08-24T03:45:21;62007.66;;;22.40;nan
7105;BME280;3594;42.152;24.714;2023-08-24T03:47:46;61871.53;;;22.60;nan
7105;BME280;3594;42.152;24.714;2023-08-24T03:50:12;61998.88;;;22.30;nan
7105;BME280;3594;42.152;24.714;2023-08-24T03:52:37;61973.34;;;22.63;nan
7105;BME280;3594;42.152;24.714;2023-08-24T03:55:05;61959.38;;;22.97;nan
7105;BME280;3594;42.152;24.714;2023-08-24T03:57:31;61953.59;;;22.96;nan
7105;BME280;3594;42.152;24.714;2023-08-24T03:59:56;62132.09;;;23.20;nan
7105;BME280;3594;42.152;24.714;2023-08-24T04:02:23;62042.25;;;23.63;nan
7105;BME280;3594;42.152;24.714;2023-08-24T04:04:49;62179.38;;;23.95;nan
7105;BME280;3594;42.152;24.714;2023-08-24T04:07:15;62122.50;;;23.95;nan
7105;BME280;3594;42.152;24.714;2023-08-24T04:09:40;62163.72;;;23.78;nan
7105;BME280;3594;42.152;24.714;2023-08-24T04:12:06;62376.00;;;24.30;nan
7105;BME280;3594;42.152;24.714;2023-08-24T04:14:32;62235.81;;;24.73;nan
7105;BME280;3594;42.152;24.714;2023-08-24T04:16:58;62167.41;;;24.68;nan
7105;BME280;3594;42.152;24.714;2023-08-24T04:19:23;62265.13;;;24.89;nan
7105;BME280;3594;42.152;24.714;2023-08-24T04:21:49;62323.31;;;25.41;nan
7105;BME280;3594;42.152;24.714;2023-08-24T04:24:14;62350.66;;;25.26;nan
7105;BME280;3594;42.152;24.714;2023-08-24T04:26:39;62370.78;;;26.06;nan
7105;BME280;3594;42.152;24.714;2023-08-24T04:29:05;62416.31;;;26.28;nan
7105;BME280;3594;42.152;24.714;2023-08-24T04:31:30;62732.09;;;26.68;nan
7105;BME280;3594;42.152;24.714;2023-08-24T04:33:56;62472.88;;;26.78;nan
7105;BME280;3594;42.152;24.714;2023-08-24T04:36:21;62580.75;;;27.04;nan
7105;BME280;3594;42.152;24.714;2023-08-24T04:38:46;62388.50;;;26.85;nan
7105;BME280;3594;42.152;24.714;2023-08-24T04:41:12;62632.13;;;27.14;nan
7105;BME280;3594;42.152;24.714;2023-08-24T04:43:37;62507.19;;;27.08;nan
7105;BME280;3594;42.152;24.714;2023-08-24T04:46:03;62592.94;;;26.77;nan
7105;BME280;3594;42.152;24.714;2023-08-24T04:48:28;62439.09;;;26.64;nan
7105;BME280;3594;42.152;24.714;2023-08-24T04:51:02;62349.25;;;26.57;nan
7105;BME280;3594;42.152;24.714;2023-08-24T04:53:28;62494.72;;;26.37;nan
7105;BME280;3594;42.152;24.714;2023-08-24T04:55:53;62513.25;;;26.44;nan
7105;BME280;3594;42.152;24.714;2023-08-24T04:58:19;62450.09;;;26.42;nan
7105;BME280;3594;42.152;24.714;2023-08-24T05:00:44;62361.44;;;26.07;nan
7105;BME280;3594;42.152;24.714;2023-08-24T05:03:10;62985.53;;;22.84;nan
7105;BME280;3594;42.152;24.714;2023-08-24T05:05:36;62432.22;;;26.19;nan
7105;BME280;3594;42.152;24.714;2023-08-24T05:08:04;62306.03;;;26.25;nan
7105;BME280;3594;42.152;24.714;2023-08-24T05:10:35;62509.84;;;26.53;nan
7105;BME280;3594;42.152;24.714;2023-08-24T05:13:01;62434.56;;;26.72;nan
7105;BME280;3594;42.152;24.714;2023-08-24T05:15:27;62544.59;;;27.04;nan
7105;BME280;3594;42.152;24.714;2023-08-24T05:17:52;62519.22;;;27.19;nan
7105;BME280;3594;42.152;24.714;2023-08-24T05:20:28;62598.09;;;27.38;nan
7105;BME280;3594;42.152;24.714;2023-08-24T05:22:54;62504.16;;;27.27;nan
7105;BME280;3594;42.152;24.714;2023-08-24T05:25:23;62688.31;;;27.48;nan
7105;BME280;3594;42.152;24.714;2023-08-24T05:27:48;62642.50;;;27.63;nan
7105;BME280;3594;42.152;24.714;2023-08-24T05:30:14;62636.94;;;27.77;nan
7105;BME280;3594;42.152;24.714;2023-08-24T05:32:39;62670.47;;;27.92;nan
7105;BME280;3594;42.152;24.714;2023-08-24T05:35:08;62640.94;;;27.80;nan
7105;BME280;3594;42.152;24.714;2023-08-24T05:37:34;62650.38;;;28.02;nan
7105;BME280;3594;42.152;24.714;2023-08-24T05:40:00;62847.72;;;28.05;nan
7105;BME280;3594;42.152;24.714;2023-08-24T05:42:26;62699.50;;;27.99;nan
7105;BME280;3594;42.152;24.714;2023-08-24T05:44:52;62673.50;;;28.14;nan
7105;BME280;3594;42.152;24.714;2023-08-24T05:47:17;62792.41;;;28.26;nan
7105;BME280;3594;42.152;24.714;2023-08-24T05:49:42;62741.66;;;28.23;nan
7105;BME280;3594;42.152;24.714;2023-08-24T05:52:08;62773.72;;;28.11;nan
7105;BME280;3594;42.152;24.714;2023-08-24T05:54:35;62880.84;;;28.16;nan
7105;BME280;3594;42.152;24.714;2023-08-24T05:57:00;62738.03;;;28.29;nan
7105;BME280;3594;42.152;24.714;2023-08-24T05:59:26;62632.03;;;28.14;nan
7105;BME280;3594;42.152;24.714;2023-08-24T06:01:52;62727.34;;;28.22;nan
7105;BME280;3594;42.152;24.714;2023-08-24T06:04:17;62732.19;;;28.28;nan
7105;BME280;3594;42.152;24.714;2023-08-24T06:06:43;62695.59;;;28.19;nan
7105;BME280;3594;42.152;24.714;2023-08-24T06:09:08;62731.59;;;28.28;nan
7105;BME280;3594;42.152;24.714;2023-08-24T06:11:35;62725.97;;;27.62;nan
7105;BME280;3594;42.152;24.714;2023-08-24T06:14:01;62724.69;;;28.10;nan
7105;BME280;3594;42.152;24.714;2023-08-24T06:16:28;62702.34;;;28.30;nan
7105;BME280;3594;42.152;24.714;2023-08-24T06:18:53;62670.66;;;28.11;nan
7105;BME280;3594;42.152;24.714;2023-08-24T06:21:18;62715.16;;;28.04;nan
7105;BME280;3594;42.152;24.714;2023-08-24T06:23:44;62641.69;;;27.99;nan
7105;BME280;3594;42.152;24.714;2023-08-24T06:26:10;62674.78;;;27.94;nan
7105;BME280;3594;42.152;24.714;2023-08-24T06:28:35;62750.19;;;27.91;nan
7105;BME280;3594;42.152;24.714;2023-08-24T06:31:01;62895.44;;;27.98;nan
7105;BME280;3594;42.152;24.714;2023-08-24T06:33:38;62627.50;;;27.94;nan
7105;BME280;3594;42.152;24.714;2023-08-24T06:36:04;62670.13;;;27.94;nan
7105;BME280;3594;42.152;24.714;2023-08-24T06:38:33;62644.56;;;27.62;nan
7105;BME280;3594;42.152;24.714;2023-08-24T06:40:59;62499.69;;;26.51;nan
7105;BME280;3594;42.152;24.714;2023-08-24T06:43:27;62359.94;;;25.13;nan
7105;BME280;3594;42.152;24.714;2023-08-24T06:45:56;62135.47;;;24.28;nan
7105;BME280;3594;42.152;24.714;2023-08-24T06:48:22;62025.16;;;23.64;nan
7105;BME280;3594;42.152;24.714;2023-08-24T06:50:48;61932.34;;;23.14;nan
7105;BME280;3594;42.152;24.714;2023-08-24T06:53:13;61944.88;;;22.98;nan
7105;BME280;3594;42.152;24.714;2023-08-24T06:55:42;62025.47;;;23.34;nan
7105;BME280;3594;42.152;24.714;2023-08-24T06:58:07;62191.59;;;23.48;nan
7105;BME280;3594;42.152;24.714;2023-08-24T07:00:33;62192.91;;;23.84;nan
7105;BME280;3594;42.152;24.714;2023-08-24T07:03:01;62201.41;;;23.80;nan
7105;BME280;3594;42.152;24.714;2023-08-24T07:05:27;62046.75;;;23.84;nan
7105;BME280;3594;42.152;24.714;2023-08-24T07:07:52;62022.69;;;23.16;nan
7105;BME280;3594;42.152;24.714;2023-08-24T07:10:19;61774.41;;;22.29;nan
7105;BME280;3594;42.152;24.714;2023-08-24T07:12:45;61447.19;;;21.79;nan
7105;BME280;3594;42.152;24.714;2023-08-24T07:15:14;61147.97;;;21.65;nan
7105;BME280;3594;42.152;24.714;2023-08-24T07:17:39;60940.47;;;21.84;nan
7105;BME280;3594;42.152;24.714;2023-08-24T07:20:05;60977.84;;;21.89;nan
7105;BME280;3594;42.152;24.714;2023-08-24T07:22:33;61615.84;;;22.78;nan
7105;BME280;3594;42.152;24.714;2023-08-24T07:25:00;61791.16;;;23.44;nan
7105;BME280;3594;42.152;24.714;2023-08-24T07:27:26;62071.19;;;24.33;nan
7105;BME280;3594;42.152;24.714;2023-08-24T07:29:51;62295.13;;;23.77;nan
7105;BME280;3594;42.152;24.714;2023-08-24T07:32:16;62277.38;;;24.86;nan
7105;BME280;3594;42.152;24.714;2023-08-24T07:34:42;62143.16;;;24.99;nan
7105;BME280;3594;42.152;24.714;2023-08-24T07:37:07;62217.81;;;25.26;nan
7105;BME280;3594;42.152;24.714;2023-08-24T07:39:33;62165.28;;;25.24;nan
7105;BME280;3594;42.152;24.714;2023-08-24T07:41:59;62259.81;;;25.73;nan
7105;BME280;3594;42.152;24.714;2023-08-24T07:44:24;62362.78;;;25.43;nan
7105;BME280;3594;42.152;24.714;2023-08-24T07:46:50;62456.47;;;26.15;nan
7105;BME280;3594;42.152;24.714;2023-08-24T07:49:15;62410.22;;;26.53;nan
7105;BME280;3594;42.152;24.714;2023-08-24T07:51:40;62526.00;;;27.02;nan
7105;BME280;3594;42.152;24.714;2023-08-24T07:54:08;62519.44;;;27.33;nan
7105;BME280;3594;42.152;24.714;2023-08-24T07:56:33;62678.78;;;27.58;nan
7105;BME280;3594;42.152;24.714;2023-08-24T07:58:59;62586.97;;;27.93;nan
7105;BME280;3594;42.152;24.714;2023-08-24T08:01:24;62718.06;;;28.46;nan
7105;BME280;3594;42.152;24.714;2023-08-24T08:03:49;62799.75;;;28.92;nan
7105;BME280;3594;42.152;24.714;2023-08-24T08:06:15;62812.84;;;29.20;nan
7105;BME280;3594;42.152;24.714;2023-08-24T08:08:40;62919.47;;;29.56;nan
7105;BME280;3594;42.152;24.714;2023-08-24T08:11:06;62916.56;;;29.81;nan
7105;BME280;3594;42.152;24.714;2023-08-24T08:13:31;63042.97;;;29.86;nan
7105;BME280;3594;42.152;24.714;2023-08-24T08:16:03;62616.81;;;27.08;nan
7105;BME280;3594;42.152;24.714;2023-08-24T08:18:29;63030.38;;;30.14;nan
7105;BME280;3594;42.152;24.714;2023-08-24T08:20:55;63079.41;;;30.37;nan
7105;BME280;3594;42.152;24.714;2023-08-24T08:23:20;62972.16;;;30.35;nan
7105;BME280;3594;42.152;24.714;2023-08-24T08:25:46;63095.28;;;30.88;nan
7105;BME280;3594;42.152;24.714;2023-08-24T08:28:11;63140.50;;;31.13;nan
7105;BME280;3594;42.152;24.714;2023-08-24T08:30:37;63174.56;;;31.50;nan
7105;BME280;3594;42.152;24.714;2023-08-24T08:33:02;63241.75;;;31.68;nan
7105;BME280;3594;42.152;24.714;2023-08-24T08:35:28;63357.03;;;31.90;nan
7105;BME280;3594;42.152;24.714;2023-08-24T08:37:53;63263.41;;;31.84;nan
7105;BME280;3594;42.152;24.714;2023-08-24T08:40:19;63292.13;;;31.75;nan
7105;BME280;3594;42.152;24.714;2023-08-24T08:42:45;63359.19;;;31.57;nan
7105;BME280;3594;42.152;24.714;2023-08-24T08:45:11;63276.81;;;31.64;nan
7105;BME280;3594;42.152;24.714;2023-08-24T08:47:37;63412.22;;;31.92;nan
7105;BME280;3594;42.152;24.714;2023-08-24T08:50:03;63374.97;;;31.89;nan
7105;BME280;3594;42.152;24.714;2023-08-24T08:52:30;63363.81;;;31.61;nan
7105;BME280;3594;42.152;24.714;2023-08-24T08:54:56;63273.44;;;31.28;nan
7105;BME280;3594;42.152;24.714;2023-08-24T08:57:22;63190.03;;;31.29;nan
7105;BME280;3594;42.152;24.714;2023-08-24T08:59:48;63227.03;;;31.01;nan
7105;BME280;3594;42.152;24.714;2023-08-24T09:02:19;63064.34;;;30.56;nan
7105;BME280;3594;42.152;24.714;2023-08-24T09:04:45;63131.50;;;29.97;nan
7105;BME280;3594;42.152;24.714;2023-08-24T09:07:15;62977.91;;;29.89;nan
7105;BME280;3594;42.152;24.714;2023-08-24T09:09:41;63077.28;;;30.25;nan
7105;BME280;3594;42.152;24.714;2023-08-24T09:12:07;63022.63;;;30.33;nan
7105;BME280;3594;42.152;24.714;2023-08-24T09:14:33;63121.09;;;30.48;nan
7105;BME280;3594;42.152;24.714;2023-08-24T09:16:59;63008.28;;;29.93;nan
7105;BME280;3594;42.152;24.714;2023-08-24T09:19:33;63085.22;;;30.25;nan
7105;BME280;3594;42.152;24.714;2023-08-24T09:22:04;62977.31;;;30.40;nan
7105;BME280;3594;42.152;24.714;2023-08-24T09:24:30;62993.88;;;29.96;nan
7105;BME280;3594;42.152;24.714;2023-08-24T09:26:57;62930.00;;;29.96;nan
7105;BME280;3594;42.152;24.714;2023-08-24T09:29:22;62925.31;;;30.08;nan
7105;BME280;3594;42.152;24.714;2023-08-24T09:31:50;62992.41;;;30.09;nan
7105;BME280;3594;42.152;24.714;2023-08-24T09:34:19;63049.47;;;29.99;nan
7105;BME280;3594;42.152;24.714;2023-08-24T09:36:45;63164.44;;;30.93;nan
7105;BME280;3594;42.152;24.714;2023-08-24T09:39:11;63189.00;;;31.24;nan
7105;BME280;3594;42.152;24.714;2023-08-24T09:41:41;63243.63;;;30.93;nan
7105;BME280;3594;42.152;24.714;2023-08-24T09:44:07;63153.72;;;30.86;nan
7105;BME280;3594;42.152;24.714;2023-08-24T09:46:37;63075.28;;;30.65;nan
7105;BME280;3594;42.152;24.714;2023-08-24T09:49:09;63007.56;;;30.24;nan
7105;BME280;3594;42.152;24.714;2023-08-24T09:51:35;63188.13;;;29.93;nan
7105;BME280;3594;42.152;24.714;2023-08-24T09:54:08;63080.28;;;30.23;nan
7105;BME280;3594;42.152;24.714;2023-08-24T09:56:39;63142.53;;;30.02;nan
7105;BME280;3594;42.152;24.714;2023-08-24T09:59:15;62894.06;;;29.66;nan
7105;BME280;3594;42.152;24.714;2023-08-24T10:01:48;63018.00;;;30.17;nan
7105;BME280;3594;42.152;24.714;2023-08-24T10:04:15;63028.88;;;30.15;nan
7105;BME280;3594;42.152;24.714;2023-08-24T10:06:42;63000.91;;;30.21;nan
7105;BME280;3594;42.152;24.714;2023-08-24T10:09:16;63188.66;;;30.70;nan
7105;BME280;3594;42.152;24.714;2023-08-24T10:11:50;63202.16;;;30.84;nan
7105;BME280;3594;42.152;24.714;2023-08-24T10:15:00;63193.31;;;31.13;nan
7105;BME280;3594;42.152;24.714;2023-08-24T10:17:07;63211.66;;;31.34;nan
7105;BME280;3594;42.152;24.714;2023-08-24T10:19:33;63173.13;;;31.12;nan
7105;BME280;3594;42.152;24.714;2023-08-24T10:22:00;63220.25;;;31.30;nan
7105;BME280;3594;42.152;24.714;2023-08-24T10:24:25;63144.44;;;31.33;nan
7105;BME280;3594;42.152;24.714;2023-08-24T10:26:52;63138.59;;;30.38;nan
7105;BME280;3594;42.152;24.714;2023-08-24T10:29:20;63162.41;;;31.05;nan
7105;BME280;3594;42.152;24.714;2023-08-24T10:31:46;63196.13;;;31.21;nan
7105;BME280;3594;42.152;24.714;2023-08-24T10:34:13;63251.88;;;31.63;nan
7105;BME280;3594;42.152;24.714;2023-08-24T10:36:40;63218.31;;;31.77;nan
7105;BME280;3594;42.152;24.714;2023-08-24T10:39:06;63263.53;;;31.91;nan
7105;BME280;3594;42.152;24.714;2023-08-24T10:41:51;63391.53;;;32.13;nan
7105;BME280;3594;42.152;24.714;2023-08-24T10:44:37;63469.97;;;32.31;nan
7105;BME280;3594;42.152;24.714;2023-08-24T10:47:22;63414.72;;;32.29;nan
7105;BME280;3594;42.152;24.714;2023-08-24T10:52:43;63405.88;;;32.30;nan
7105;BME280;3594;42.152;24.714;2023-08-24T10:55:27;63432.28;;;32.19;nan
7105;BME280;3594;42.152;24.714;2023-08-24T10:57:56;63242.22;;;31.73;nan
7105;BME280;3594;42.152;24.714;2023-08-24T11:00:26;63389.22;;;32.11;nan
7105;BME280;3594;42.152;24.714;2023-08-24T11:02:52;63466.22;;;32.41;nan
7105;BME280;3594;42.152;24.714;2023-08-24T11:05:23;63383.13;;;32.48;nan
7105;BME280;3594;42.152;24.714;2023-08-24T11:08:00;63363.22;;;32.44;nan
7105;BME280;3594;42.152;24.714;2023-08-24T11:13:14;63415.56;;;32.71;nan
7105;BME280;3594;42.152;24.714;2023-08-24T11:18:23;63393.97;;;32.90;nan
7105;BME280;3594;42.152;24.714;2023-08-24T11:21:00;63620.16;;;33.27;nan
7105;BME280;3594;42.152;24.714;2023-08-24T11:25:54;63696.00;;;33.50;nan
7105;BME280;3594;42.152;24.714;2023-08-24T11:28:22;63621.75;;;33.50;nan
7105;BME280;3594;42.152;24.714;2023-08-24T11:30:48;63679.31;;;33.58;nan
7105;BME280;3594;42.152;24.714;2023-08-24T11:33:14;63596.19;;;33.60;nan
7105;BME280;3594;42.152;24.714;2023-08-24T11:35:43;63550.50;;;33.48;nan
7105;BME280;3594;42.152;24.714;2023-08-24T11:38:09;63672.38;;;33.24;nan
7105;BME280;3594;42.152;24.714;2023-08-24T11:40:34;63578.75;;;33.49;nan
7105;BME280;3594;42.152;24.714;2023-08-24T11:43:00;63563.69;;;33.64;nan
7105;BME280;3594;42.152;24.714;2023-08-24T11:45:35;63550.41;;;33.52;nan
7105;BME280;3594;42.152;24.714;2023-08-24T11:48:07;63664.94;;;33.85;nan
7105;BME280;3594;42.152;24.714;2023-08-24T11:50:33;63618.41;;;33.70;nan
7105;BME280;3594;42.152;24.714;2023-08-24T11:53:00;63673.28;;;33.95;nan
7105;BME280;3594;42.152;24.714;2023-08-24T11:55:26;63641.28;;;33.88;nan
7105;BME280;3594;42.152;24.714;2023-08-24T11:57:53;63669.03;;;34.00;nan
7105;BME280;3594;42.152;24.714;2023-08-24T12:00:20;63705.88;;;34.14;nan
7105;BME280;3594;42.152;24.714;2023-08-24T12:02:47;63600.72;;;33.96;nan
7105;BME280;3594;42.152;24.714;2023-08-24T12:05:22;63728.63;;;34.13;nan
7105;BME280;3594;42.152;24.714;2023-08-24T12:07:48;63692.91;;;34.28;nan
7105;BME280;3594;42.152;24.714;2023-08-24T12:10:13;63733.47;;;34.08;nan
7105;BME280;3594;42.152;24.714;2023-08-24T12:12:39;63682.00;;;34.14;nan
7105;BME280;3594;42.152;24.714;2023-08-24T12:15:04;63809.09;;;34.16;nan
7105;BME280;3594;42.152;24.714;2023-08-24T12:17:42;63756.88;;;34.58;nan
7105;BME280;3594;42.152;24.714;2023-08-24T12:20:17;63866.78;;;34.52;nan
7105;BME280;3594;42.152;24.714;2023-08-24T12:22:42;63778.56;;;34.52;nan
7105;BME280;3594;42.152;24.714;2023-08-24T12:25:08;63856.81;;;34.65;nan
7105;BME280;3594;42.152;24.714;2023-08-24T12:27:33;63770.94;;;34.78;nan
7105;BME280;3594;42.152;24.714;2023-08-24T12:30:02;63831.19;;;34.91;nan
7105;BME280;3594;42.152;24.714;2023-08-24T12:32:47;63890.47;;;34.94;nan
7105;BME280;3594;42.152;24.714;2023-08-24T12:35:16;63912.84;;;35.11;nan
7105;BME280;3594;42.152;24.714;2023-08-24T12:37:41;63888.81;;;35.16;nan
7105;BME280;3594;42.152;24.714;2023-08-24T12:40:07;63898.97;;;35.27;nan
7105;BME280;3594;42.152;24.714;2023-08-24T12:42:34;64004.34;;;35.17;nan
7105;BME280;3594;42.152;24.714;2023-08-24T12:44:59;64011.09;;;35.64;nan
7105;BME280;3594;42.152;24.714;2023-08-24T12:47:24;64003.97;;;35.51;nan
7105;BME280;3594;42.152;24.714;2023-08-24T12:49:51;64019.97;;;35.63;nan
7105;BME280;3594;42.152;24.714;2023-08-24T12:52:18;63988.28;;;35.81;nan
7105;BME280;3594;42.152;24.714;2023-08-24T12:54:43;64141.44;;;36.29;nan
7105;BME280;3594;42.152;24.714;2023-08-24T12:57:08;64192.25;;;36.20;nan
7105;BME280;3594;42.152;24.714;2023-08-24T12:59:34;64004.00;;;35.63;nan
7105;BME280;3594;42.152;24.714;2023-08-24T13:01:59;63977.81;;;36.00;nan
7105;BME280;3594;42.152;24.714;2023-08-24T13:04:25;64024.03;;;35.82;nan
7105;BME280;3594;42.152;24.714;2023-08-24T13:06:52;63962.19;;;35.70;nan
7105;BME280;3594;42.152;24.714;2023-08-24T13:09:17;63987.16;;;35.48;nan
7105;BME280;3594;42.152;24.714;2023-08-24T13:11:43;64158.28;;;35.67;nan
7105;BME280;3594;42.152;24.714;2023-08-24T13:14:08;63929.13;;;35.53;nan
7105;BME280;3594;42.152;24.714;2023-08-24T13:16:34;63994.22;;;35.66;nan
7105;BME280;3594;42.152;24.714;2023-08-24T13:18:59;63988.28;;;35.81;nan
7105;BME280;3594;42.152;24.714;2023-08-24T13:21:25;64060.28;;;35.88;nan
7105;BME280;3594;42.152;24.714;2023-08-24T13:23:51;64034.16;;;35.94;nan
7105;BME280;3594;42.152;24.714;2023-08-24T13:26:20;64079.59;;;35.84;nan
7105;BME280;3594;42.152;24.714;2023-08-24T13:28:47;64096.63;;;36.06;nan
7105;BME280;3594;42.152;24.714;2023-08-24T13:31:13;64075.09;;;35.87;nan
7105;BME280;3594;42.152;24.714;2023-08-24T13:33:38;64077.81;;;35.99;nan
7105;BME280;3594;42.152;24.714;2023-08-24T13:36:04;64081.91;;;35.86;nan
7105;BME280;3594;42.152;24.714;2023-08-24T13:38:30;64125.41;;;36.01;nan
7105;BME280;3594;42.152;24.714;2023-08-24T13:40:55;64011.09;;;35.64;nan
7105;BME280;3594;42.152;24.714;2023-08-24T13:43:21;63936.44;;;35.57;nan
7105;BME280;3594;42.152;24.714;2023-08-24T13:45:46;64014.97;;;35.77;nan
7105;BME280;3594;42.152;24.714;2023-08-24T13:48:12;64085.75;;;35.87;nan
7105;BME280;3594;42.152;24.714;2023-08-24T13:50:37;63907.41;;;35.60;nan